Time;durP1;ratioP1;P1;durP2;ratioP2;P2;SDS_P1;SDS_P2;PMS_P1;PMS_P2;Temp;Humidity;BMP_temperature;BMP_pressure;BME280_temperature;BME280_humidity;BME280_pressure;Samples;Min_cycle;Max_cycle;Signal;HPM_P1;HPM_P2
2021/11/29 00:00:36;;;;;;;0.40;0.20;;;1.80;99.90;;;;;;4990822;28;20387;-71
2021/11/29 00:03:12;;;;;;;0.40;0.20;;;1.70;99.90;;;;;;4991193;28;20382;-70
2021/11/29 00:05:38;;;;;;;0.40;0.20;;;1.60;99.90;;;;;;4991174;28;20386;-73
2021/11/29 00:08:05;;;;;;;0.40;0.20;;;1.70;99.90;;;;;;4991210;28;20389;-73
2021/11/29 00:10:32;;;;;;;0.40;0.20;;;1.60;99.90;;;;;;4990458;28;20415;-71
2021/11/29 00:12:58;;;;;;;0.40;0.20;;;1.60;99.90;;;;;;4990930;28;20394;-71
2021/11/29 00:15:24;;;;;;;0.40;0.20;;;1.60;99.90;;;;;;4990358;28;20729;-71
2021/11/29 00:17:50;;;;;;;0.40;0.20;;;1.60;99.90;;;;;;4990962;28;20389;-72
2021/11/29 00:20:17;;;;;;;0.40;0.20;;;1.60;99.90;;;;;;4991146;28;20405;-73
2021/11/29 00:22:43;;;;;;;0.40;0.20;;;1.70;99.90;;;;;;4990678;28;20402;-71
2021/11/29 00:25:10;;;;;;;0.40;0.20;;;1.60;99.90;;;;;;4990885;28;20481;-70
2021/11/29 00:27:38;;;;;;;0.40;0.20;;;1.50;99.90;;;;;;4990519;28;20401;-69
2021/11/29 00:30:06;;;;;;;0.40;0.20;;;1.50;99.90;;;;;;4990773;28;20445;-70
2021/11/29 00:32:32;;;;;;;0.40;0.20;;;1.70;99.90;;;;;;4990387;28;20471;-70
2021/11/29 00:34:58;;;;;;;0.40;0.20;;;1.80;99.90;;;;;;4990878;28;20400;-70
2021/11/29 00:37:24;;;;;;;0.40;0.20;;;1.70;99.90;;;;;;4957329;28;20838;-72
2021/11/29 00:39:51;;;;;;;0.40;0.20;;;1.70;99.90;;;;;;4988923;28;20759;-72
2021/11/29 00:42:17;;;;;;;0.40;0.20;;;1.70;99.90;;;;;;4990397;28;20431;-72
2021/11/29 00:44:43;;;;;;;0.70;0.32;;;1.70;99.90;;;;;;4990356;28;20383;-71
2021/11/29 00:47:09;;;;;;;0.40;0.20;;;1.70;99.90;;;;;;4990677;28;20402;-71
2021/11/29 00:49:35;;;;;;;0.40;0.20;;;1.80;99.90;;;;;;4934192;28;1873858;-71
2021/11/29 00:52:01;;;;;;;0.40;0.20;;;1.80;99.90;;;;;;5010603;28;20955;-71
2021/11/29 00:54:27;;;;;;;1.30;0.90;;;1.90;99.90;;;;;;5011167;28;20393;-71
2021/11/29 00:56:52;;;;;;;0.40;0.20;;;1.70;99.90;;;;;;5010338;28;20471;-71
2021/11/29 00:59:18;;;;;;;0.40;0.30;;;1.80;99.90;;;;;;4994183;28;20418;-72
2021/11/29 01:01:44;;;;;;;0.40;0.20;;;1.70;99.90;;;;;;4991408;28;20391;-71
2021/11/29 01:04:11;;;;;;;0.40;0.40;;;1.70;99.90;;;;;;4991436;28;20395;-70
2021/11/29 01:06:37;;;;;;;0.40;0.20;;;1.70;99.90;;;;;;4991231;28;20387;-70
2021/11/29 01:09:04;;;;;;;0.40;0.40;;;1.80;99.90;;;;;;4990521;28;20402;-70
2021/11/29 01:11:30;;;;;;;0.40;0.20;;;1.90;99.90;;;;;;4990875;28;20884;-70
2021/11/29 01:13:55;;;;;;;0.40;0.20;;;1.90;99.90;;;;;;4990743;28;20394;-70
2021/11/29 01:16:22;;;;;;;0.40;0.30;;;1.90;99.90;;;;;;4990982;28;20382;-70
2021/11/29 01:18:48;;;;;;;0.40;0.20;;;2.00;99.90;;;;;;4991037;28;20814;-71
2021/11/29 01:21:14;;;;;;;0.40;0.30;;;1.80;99.90;;;;;;4990683;28;20386;-71
2021/11/29 01:23:40;;;;;;;0.40;0.30;;;1.70;99.90;;;;;;4990705;28;20794;-71
2021/11/29 01:26:05;;;;;;;0.40;0.20;;;1.90;99.90;;;;;;4990511;28;20395;-71
2021/11/29 01:28:32;;;;;;;0.40;0.20;;;1.90;99.90;;;;;;4991070;28;20406;-71
2021/11/29 01:30:57;;;;;;;0.40;0.20;;;1.90;99.90;;;;;;4990761;28;20477;-71
2021/11/29 01:33:23;;;;;;;0.40;0.20;;;2.00;99.90;;;;;;4990194;28;20776;-71
2021/11/29 01:35:49;;;;;;;0.40;0.40;;;2.10;99.90;;;;;;4991007;28;20509;-71
2021/11/29 01:38:15;;;;;;;0.40;0.30;;;2.20;99.90;;;;;;4990327;28;20379;-71
2021/11/29 01:40:41;;;;;;;0.40;0.20;;;2.10;99.90;;;;;;4991223;28;20386;-72
2021/11/29 01:43:12;;;;;;;0.40;0.20;;;2.10;99.90;;;;;;4973522;28;20410;-71
2021/11/29 01:45:44;;;;;;;0.40;0.20;;;2.10;99.90;;;;;;4990497;28;20851;-71
2021/11/29 01:48:11;;;;;;;0.40;0.20;;;2.10;99.90;;;;;;4990876;28;20926;-71
2021/11/29 01:50:40;;;;;;;0.40;0.20;;;2.10;99.90;;;;;;4991753;28;20503;-71
2021/11/29 01:53:06;;;;;;;0.40;0.30;;;2.00;99.90;;;;;;4994367;28;20386;-71
2021/11/29 01:55:32;;;;;;;0.40;0.20;;;2.00;99.90;;;;;;4994052;28;20381;-71
2021/11/29 01:57:58;;;;;;;1.20;0.90;;;2.10;99.90;;;;;;5000169;28;20396;-71
2021/11/29 02:00:27;;;;;;;0.40;0.20;;;2.10;99.90;;;;;;5014082;28;20397;-71
2021/11/29 02:02:55;;;;;;;3.10;0.90;;;2.20;99.90;;;;;;5013265;28;20380;-71
2021/11/29 02:05:22;;;;;;;0.40;0.20;;;2.30;99.90;;;;;;5013974;28;20551;-71
2021/11/29 02:07:48;;;;;;;0.40;0.30;;;2.30;99.90;;;;;;5013259;28;20389;-71
2021/11/29 02:10:15;;;;;;;1.10;0.80;;;2.30;99.90;;;;;;5013522;28;20421;-72
2021/11/29 02:12:41;;;;;;;0.40;0.20;;;2.20;99.90;;;;;;5012803;28;20748;-70
2021/11/29 02:15:10;;;;;;;0.40;0.20;;;2.30;99.90;;;;;;5013769;28;20556;-70
2021/11/29 02:17:36;;;;;;;0.40;0.30;;;2.30;99.90;;;;;;5013863;28;20392;-70
2021/11/29 02:20:04;;;;;;;0.70;0.70;;;2.30;99.90;;;;;;5012990;28;20440;-70
2021/11/29 02:22:30;;;;;;;2.90;1.00;;;2.40;99.90;;;;;;5013661;28;20425;-72
2021/11/29 02:24:56;;;;;;;0.70;0.60;;;2.30;99.90;;;;;;5013050;28;20746;-70
2021/11/29 02:27:22;;;;;;;0.40;0.20;;;2.40;99.90;;;;;;4995845;28;20420;-72
2021/11/29 02:29:54;;;;;;;0.40;0.40;;;2.30;99.90;;;;;;5013495;28;20385;-70
2021/11/29 02:32:20;;;;;;;0.40;0.30;;;2.30;99.90;;;;;;5013380;28;20439;-70
2021/11/29 02:34:47;;;;;;;0.60;0.60;;;2.20;99.90;;;;;;5013071;28;20392;-70
2021/11/29 02:37:13;;;;;;;0.50;0.50;;;2.10;99.90;;;;;;5012446;28;20381;-71
2021/11/29 02:39:41;;;;;;;0.40;0.30;;;2.10;99.90;;;;;;5013075;28;20385;-70
2021/11/29 02:42:09;;;;;;;0.40;0.30;;;2.10;99.90;;;;;;5012573;28;20814;-70
2021/11/29 02:44:35;;;;;;;0.40;0.22;;;2.10;99.90;;;;;;5012966;28;20392;-70
2021/11/29 02:47:01;;;;;;;0.40;0.20;;;2.10;99.90;;;;;;5013297;28;20377;-70
2021/11/29 02:49:27;;;;;;;0.40;0.20;;;2.20;99.90;;;;;;5004929;28;20753;-70
2021/11/29 02:51:56;;;;;;;0.40;0.20;;;2.30;99.90;;;;;;4993196;28;20419;-70
2021/11/29 02:54:25;;;;;;;0.40;0.30;;;2.30;99.90;;;;;;4992719;28;20433;-70
2021/11/29 02:56:53;;;;;;;0.40;0.20;;;2.10;99.90;;;;;;4993256;28;20455;-70
2021/11/29 02:59:24;;;;;;;0.40;0.20;;;2.00;99.90;;;;;;4975727;28;20403;-70
2021/11/29 03:01:56;;;;;;;0.40;0.20;;;2.00;99.90;;;;;;4972711;28;20441;-70
2021/11/29 03:04:27;;;;;;;0.40;0.20;;;2.20;99.90;;;;;;4972976;28;20392;-71
2021/11/29 03:06:53;;;;;;;2.20;1.30;;;2.10;99.90;;;;;;4973557;28;20788;-72
2021/11/29 03:09:20;;;;;;;0.40;0.20;;;2.30;99.90;;;;;;4973677;28;20745;-72
2021/11/29 03:11:47;;;;;;;0.40;0.30;;;2.40;99.90;;;;;;4973184;28;20499;-73
2021/11/29 03:14:14;;;;;;;0.40;0.20;;;2.30;99.90;;;;;;4973403;28;20482;-70
2021/11/29 03:16:40;;;;;;;0.43;0.25;;;2.30;99.90;;;;;;4972901;28;20737;-70
2021/11/29 03:19:06;;;;;;;0.40;0.20;;;2.50;99.90;;;;;;4973183;28;20404;-71
2021/11/29 03:21:34;;;;;;;0.40;0.30;;;2.40;99.90;;;;;;4973200;28;20391;-71
2021/11/29 03:24:03;;;;;;;0.40;0.20;;;2.30;99.90;;;;;;4973403;28;20395;-71
2021/11/29 03:26:31;;;;;;;0.40;0.20;;;2.10;99.90;;;;;;4973315;28;20511;-71
2021/11/29 03:29:01;;;;;;;0.80;0.60;;;2.00;99.90;;;;;;4972382;28;20392;-71
2021/11/29 03:31:29;;;;;;;0.40;0.20;;;2.20;99.90;;;;;;4973122;28;20471;-71
2021/11/29 03:33:57;;;;;;;1.30;0.90;;;2.40;99.90;;;;;;4972383;28;20423;-71
2021/11/29 03:36:25;;;;;;;0.40;0.20;;;2.40;99.90;;;;;;4973113;28;20428;-71
2021/11/29 03:38:51;;;;;;;0.40;0.20;;;2.20;99.90;;;;;;4972736;28;20864;-71
2021/11/29 03:41:17;;;;;;;0.70;0.70;;;2.20;99.90;;;;;;4973048;28;20396;-71
2021/11/29 03:43:43;;;;;;;1.10;0.63;;;2.20;99.90;;;;;;4973184;28;20729;-71
2021/11/29 03:46:09;;;;;;;0.40;0.30;;;2.30;99.90;;;;;;4972295;28;20438;-71
2021/11/29 03:48:35;;;;;;;0.90;0.90;;;2.30;99.90;;;;;;4972442;28;20411;-71
2021/11/29 03:51:01;;;;;;;0.40;0.20;;;2.40;99.90;;;;;;4991770;28;20473;-71
2021/11/29 03:53:28;;;;;;;0.60;0.60;;;2.40;99.90;;;;;;4991824;28;20382;-71
2021/11/29 03:55:53;;;;;;;0.80;0.60;;;2.40;99.90;;;;;;4992348;28;20465;-71
2021/11/29 03:58:19;;;;;;;0.43;0.43;;;2.20;99.90;;;;;;4991578;28;20560;-71
2021/11/29 04:00:45;;;;;;;0.40;0.20;;;2.00;99.90;;;;;;4991669;28;20397;-71
2021/11/29 04:03:11;;;;;;;0.40;0.30;;;2.10;99.90;;;;;;4991419;28;20421;-71
2021/11/29 04:05:38;;;;;;;0.43;0.37;;;2.10;99.90;;;;;;4974563;28;20898;-71
2021/11/29 04:08:04;;;;;;;0.40;0.20;;;2.00;99.90;;;;;;4991714;28;20755;-71
2021/11/29 04:10:30;;;;;;;0.40;0.30;;;2.00;99.90;;;;;;4991284;28;20455;-71
2021/11/29 04:12:55;;;;;;;0.40;0.20;;;2.00;99.90;;;;;;4991946;28;20470;-71
2021/11/29 04:15:22;;;;;;;0.40;0.20;;;2.10;99.90;;;;;;4991696;28;20740;-71
2021/11/29 04:17:47;;;;;;;0.40;0.20;;;2.20;99.90;;;;;;4991670;28;20470;-71
2021/11/29 04:20:15;;;;;;;1.30;0.90;;;2.20;99.90;;;;;;4991483;28;20508;-71
2021/11/29 04:22:45;;;;;;;0.40;0.20;;;2.20;99.90;;;;;;4991346;28;20462;-71
2021/11/29 04:25:13;;;;;;;0.40;0.20;;;1.90;99.90;;;;;;4974392;28;20406;-71
2021/11/29 04:27:41;;;;;;;0.70;0.60;;;1.80;99.90;;;;;;4991127;28;20394;-71
2021/11/29 04:30:12;;;;;;;0.40;0.20;;;1.90;99.90;;;;;;4991523;28;20443;-71
2021/11/29 04:32:38;;;;;;;0.40;0.20;;;1.90;99.90;;;;;;4991206;28;20382;-71
2021/11/29 04:35:05;;;;;;;0.40;0.20;;;1.90;99.90;;;;;;4991651;28;20497;-72
2021/11/29 04:37:30;;;;;;;0.40;0.30;;;1.90;99.90;;;;;;4991170;28;20466;-72
2021/11/29 04:39:56;;;;;;;0.40;0.20;;;1.90;99.90;;;;;;4991328;28;20422;-72
2021/11/29 04:42:22;;;;;;;0.40;0.20;;;1.90;99.90;;;;;;4991632;28;20382;-72
2021/11/29 04:44:47;;;;;;;0.40;0.20;;;1.90;99.90;;;;;;4990917;28;20387;-73
2021/11/29 04:47:13;;;;;;;1.80;0.90;;;1.90;99.90;;;;;;4991644;28;20437;-72
2021/11/29 04:49:39;;;;;;;2.30;1.00;;;1.80;99.90;;;;;;4990631;28;20925;-72
2021/11/29 04:52:05;;;;;;;0.40;0.20;;;1.80;99.90;;;;;;4991403;28;20402;-72
2021/11/29 04:54:31;;;;;;;0.40;0.20;;;1.80;99.90;;;;;;4991568;28;20382;-72
2021/11/29 04:56:56;;;;;;;0.40;0.20;;;1.90;99.90;;;;;;4990748;28;20387;-72
2021/11/29 04:59:22;;;;;;;0.40;0.20;;;1.90;99.90;;;;;;4957171;28;20400;-72
2021/11/29 05:01:48;;;;;;;0.40;0.20;;;2.00;99.90;;;;;;4971558;28;20439;-72
2021/11/29 05:04:13;;;;;;;0.40;0.20;;;1.80;99.90;;;;;;4972101;28;20675;-72
2021/11/29 05:06:39;;;;;;;0.40;0.30;;;1.90;99.90;;;;;;4972278;28;20380;-72
2021/11/29 05:09:07;;;;;;;0.40;0.20;;;1.90;99.90;;;;;;4971428;28;20498;-72
2021/11/29 05:11:33;;;;;;;0.40;0.20;;;1.90;99.90;;;;;;4972033;28;20567;-72
2021/11/29 05:13:59;;;;;;;1.20;1.10;;;1.80;99.90;;;;;;4954271;28;20407;-72
2021/11/29 05:16:25;;;;;;;0.40;0.20;;;1.80;99.90;;;;;;4954812;28;20404;-72
2021/11/29 05:18:51;;;;;;;0.40;0.20;;;1.90;99.90;;;;;;4972094;28;20468;-72
2021/11/29 05:21:16;;;;;;;0.40;0.20;;;2.00;99.90;;;;;;4971794;28;20520;-72
2021/11/29 05:23:42;;;;;;;0.80;0.50;;;2.00;99.90;;;;;;4972286;28;20734;-72
2021/11/29 05:26:08;;;;;;;0.40;0.20;;;1.80;99.90;;;;;;4973596;28;20728;-72
2021/11/29 05:28:34;;;;;;;1.80;1.00;;;1.90;99.90;;;;;;4975773;28;20376;-72
2021/11/29 05:30:59;;;;;;;2.70;0.90;;;1.90;99.90;;;;;;4975331;28;20824;-72
2021/11/29 05:33:25;;;;;;;0.40;0.40;;;2.00;99.90;;;;;;4957812;28;20399;-72
2021/11/29 05:35:51;;;;;;;0.40;0.20;;;1.90;99.90;;;;;;4975890;28;20384;-72
2021/11/29 05:38:16;;;;;;;0.40;0.20;;;1.90;99.90;;;;;;4975377;28;20387;-72
2021/11/29 05:40:42;;;;;;;0.60;0.60;;;1.80;99.90;;;;;;4958262;28;20399;-72
2021/11/29 05:43:08;;;;;;;0.40;0.20;;;1.90;99.90;;;;;;4958218;28;20805;-72
2021/11/29 05:45:34;;;;;;;0.40;0.20;;;2.10;99.90;;;;;;4974767;28;20822;-72
2021/11/29 05:48:00;;;;;;;0.40;0.20;;;2.10;99.90;;;;;;4958201;28;20847;-72
2021/11/29 05:50:26;;;;;;;0.40;0.40;;;2.00;99.90;;;;;;4989637;28;20437;-73
2021/11/29 05:52:51;;;;;;;0.40;0.20;;;1.90;99.90;;;;;;4994808;28;20921;-72
2021/11/29 05:55:17;;;;;;;0.80;0.80;;;1.90;99.90;;;;;;4994910;28;20445;-73
2021/11/29 05:57:43;;;;;;;0.40;0.20;;;1.80;99.90;;;;;;4997871;28;20472;-73
2021/11/29 06:00:12;;;;;;;0.55;0.55;;;1.70;99.90;;;;;;5014506;28;20397;-73
2021/11/29 06:02:39;;;;;;;0.60;0.60;;;2.00;99.90;;;;;;5013658;28;20392;-73
2021/11/29 06:05:06;;;;;;;1.80;0.60;;;1.90;99.90;;;;;;5014529;28;20396;-73
2021/11/29 06:07:32;;;;;;;0.40;0.20;;;2.00;99.90;;;;;;5014192;28;20399;-72
2021/11/29 06:09:58;;;;;;;0.40;0.20;;;1.90;99.90;;;;;;5013474;28;20515;-73
2021/11/29 06:12:23;;;;;;;0.40;0.30;;;2.10;99.90;;;;;;5013797;28;20552;-73
2021/11/29 06:14:49;;;;;;;0.40;0.20;;;2.00;99.90;;;;;;5013556;28;20380;-72
2021/11/29 06:17:15;;;;;;;0.40;0.20;;;1.90;99.90;;;;;;5013952;28;20451;-72
2021/11/29 06:19:40;;;;;;;0.40;0.25;;;1.90;99.90;;;;;;5013787;28;20392;-72
2021/11/29 06:22:06;;;;;;;0.40;0.20;;;1.90;99.90;;;;;;5013213;28;20769;-72
2021/11/29 06:24:32;;;;;;;0.60;0.60;;;1.90;99.90;;;;;;5013570;28;20448;-73
2021/11/29 06:26:57;;;;;;;0.40;0.30;;;2.10;99.90;;;;;;5012919;28;20894;-72
2021/11/29 06:29:23;;;;;;;0.40;0.20;;;2.00;99.90;;;;;;5000624;28;20752;-72
2021/11/29 06:31:49;;;;;;;0.50;0.50;;;2.00;99.90;;;;;;4993696;28;20415;-72
2021/11/29 06:34:14;;;;;;;0.40;0.30;;;2.10;99.90;;;;;;4993511;28;20437;-72
2021/11/29 06:36:40;;;;;;;0.40;0.30;;;2.00;99.90;;;;;;4995067;28;20395;-72
2021/11/29 06:39:06;;;;;;;0.40;0.20;;;2.00;99.90;;;;;;5006371;28;20417;-72
2021/11/29 06:41:32;;;;;;;0.40;0.20;;;2.10;99.90;;;;;;4997960;28;20875;-73
2021/11/29 06:43:58;;;;;;;0.50;0.30;;;2.10;99.90;;;;;;5009280;28;20932;-73
2021/11/29 06:46:23;;;;;;;0.80;0.70;;;2.10;99.90;;;;;;5002897;28;20400;-73
2021/11/29 06:48:49;;;;;;;0.40;0.20;;;2.10;99.90;;;;;;5001575;28;20379;-72
2021/11/29 06:51:16;;;;;;;0.47;0.47;;;1.90;99.90;;;;;;5007507;28;20412;-72
2021/11/29 06:53:42;;;;;;;0.70;0.60;;;1.80;99.90;;;;;;4980586;28;20476;-72
2021/11/29 06:56:08;;;;;;;0.40;0.30;;;1.80;99.90;;;;;;4988711;28;20520;-73
2021/11/29 06:58:36;;;;;;;0.65;0.65;;;1.90;99.90;;;;;;4996696;28;20844;-72
2021/11/29 07:01:02;;;;;;;0.40;0.20;;;2.00;99.90;;;;;;5002266;28;20394;-73
2021/11/29 07:03:28;;;;;;;0.40;0.20;;;1.90;99.90;;;;;;4993012;28;20390;-73
2021/11/29 07:05:53;;;;;;;0.40;0.20;;;2.00;99.90;;;;;;4992954;28;20382;-72
2021/11/29 07:08:19;;;;;;;0.40;0.20;;;1.90;99.90;;;;;;4993107;28;20492;-72
2021/11/29 07:10:47;;;;;;;0.40;0.20;;;1.80;99.90;;;;;;4992625;28;20498;-72
2021/11/29 07:13:14;;;;;;;0.40;0.20;;;1.90;99.90;;;;;;4993340;28;20446;-72
2021/11/29 07:15:40;;;;;;;0.40;0.20;;;1.90;99.90;;;;;;4992821;28;20383;-73
2021/11/29 07:18:07;;;;;;;0.40;0.20;;;1.90;99.90;;;;;;4993250;28;20441;-73
2021/11/29 07:20:33;;;;;;;0.40;0.20;;;1.90;99.90;;;;;;4992868;28;20406;-73
2021/11/29 07:22:59;;;;;;;0.57;0.50;;;1.90;99.90;;;;;;4992834;28;20414;-72
2021/11/29 07:25:25;;;;;;;0.40;0.20;;;2.00;99.90;;;;;;4992889;28;20863;-72
2021/11/29 07:27:51;;;;;;;0.90;0.60;;;2.10;99.90;;;;;;4992466;28;20386;-72
2021/11/29 07:30:19;;;;;;;1.00;0.80;;;2.30;99.90;;;;;;4993112;28;20890;-73
2021/11/29 07:32:45;;;;;;;0.40;0.27;;;2.30;99.90;;;;;;4992400;28;20383;-72
2021/11/29 07:35:13;;;;;;;0.40;0.20;;;2.30;99.90;;;;;;4992732;28;20788;-73
2021/11/29 07:37:40;;;;;;;0.40;0.30;;;2.30;99.90;;;;;;4992950;28;20402;-72
2021/11/29 07:40:07;;;;;;;0.40;0.20;;;2.30;99.90;;;;;;4992854;28;20449;-73
2021/11/29 07:42:33;;;;;;;0.40;0.20;;;2.30;99.90;;;;;;4975134;28;20390;-72
2021/11/29 07:44:59;;;;;;;0.40;0.20;;;2.30;99.90;;;;;;4974521;28;20406;-72
2021/11/29 07:47:25;;;;;;;0.40;0.30;;;2.30;99.90;;;;;;4992329;28;20740;-72
2021/11/29 07:49:52;;;;;;;0.40;0.40;;;2.00;99.90;;;;;;4991430;28;20529;-72
2021/11/29 07:52:18;;;;;;;1.60;1.10;;;1.90;99.90;;;;;;4992356;28;20741;-72
2021/11/29 07:54:45;;;;;;;0.40;0.20;;;2.00;99.90;;;;;;4992210;28;20550;-72
2021/11/29 07:57:13;;;;;;;0.40;0.20;;;2.10;99.90;;;;;;4991763;28;20394;-72
2021/11/29 07:59:39;;;;;;;0.40;0.25;;;2.30;99.90;;;;;;5011644;28;20392;-72
2021/11/29 08:02:06;;;;;;;0.40;0.30;;;2.20;99.90;;;;;;5011076;28;20479;-72
2021/11/29 08:04:32;;;;;;;0.40;0.40;;;2.20;99.90;;;;;;5012152;28;20725;-72
2021/11/29 08:06:57;;;;;;;0.40;0.20;;;2.00;99.90;;;;;;5011578;28;20389;-72
2021/11/29 08:09:23;;;;;;;0.40;0.40;;;2.10;99.90;;;;;;5011034;28;20389;-73
2021/11/29 08:11:49;;;;;;;0.40;0.40;;;2.00;99.90;;;;;;5011298;28;20412;-72
2021/11/29 08:14:15;;;;;;;0.50;0.50;;;2.00;99.90;;;;;;5011186;28;20444;-72
2021/11/29 08:16:41;;;;;;;0.60;0.60;;;2.10;99.90;;;;;;5011516;28;20387;-72
2021/11/29 08:19:07;;;;;;;0.90;0.60;;;2.20;99.90;;;;;;5011625;28;20385;-72
2021/11/29 08:21:33;;;;;;;0.40;0.40;;;2.20;99.90;;;;;;5011296;28;20400;-71
2021/11/29 08:23:58;;;;;;;0.40;0.20;;;2.40;99.90;;;;;;5011424;28;20393;-71
2021/11/29 08:26:26;;;;;;;1.10;0.50;;;2.20;99.90;;;;;;5010686;28;20417;-72
2021/11/29 08:28:52;;;;;;;0.80;0.80;;;2.40;99.90;;;;;;5011441;28;20392;-71
2021/11/29 08:31:18;;;;;;;0.40;0.30;;;2.40;99.90;;;;;;5010865;28;20762;-72
2021/11/29 08:33:44;;;;;;;0.40;0.20;;;2.40;99.90;;;;;;5011344;28;20711;-72
2021/11/29 08:36:10;;;;;;;0.97;0.97;;;2.50;99.90;;;;;;5011429;28;20399;-71
2021/11/29 08:38:36;;;;;;;0.40;0.20;;;2.50;99.90;;;;;;5010732;28;20392;-72
2021/11/29 08:41:02;;;;;;;0.80;0.50;;;2.40;99.90;;;;;;5011378;28;20389;-72
2021/11/29 08:43:29;;;;;;;0.40;0.30;;;2.50;99.90;;;;;;5010428;28;20819;-72
2021/11/29 08:45:56;;;;;;;0.80;0.80;;;2.30;99.90;;;;;;5011394;28;20377;-72
2021/11/29 08:48:24;;;;;;;0.40;0.20;;;2.30;99.90;;;;;;5011341;28;20847;-72
2021/11/29 08:50:53;;;;;;;0.40;0.30;;;2.40;99.90;;;;;;4992521;28;20444;-72
2021/11/29 08:53:23;;;;;;;0.40;0.20;;;2.50;99.90;;;;;;4991828;28;20387;-72
2021/11/29 08:55:49;;;;;;;0.80;0.35;;;2.30;99.90;;;;;;4991367;28;20477;-72
2021/11/29 08:58:16;;;;;;;0.80;0.60;;;2.30;99.90;;;;;;4983615;28;20400;-72
2021/11/29 09:00:46;;;;;;;0.80;0.80;;;2.40;99.90;;;;;;4973280;28;20388;-72
2021/11/29 09:03:12;;;;;;;0.40;0.20;;;2.60;99.90;;;;;;4976303;28;20384;-72
2021/11/29 09:05:42;;;;;;;1.30;0.50;;;2.60;99.90;;;;;;4976197;28;20883;-72
2021/11/29 09:08:08;;;;;;;0.40;0.20;;;2.60;99.90;;;;;;4975940;28;20475;-72
2021/11/29 09:10:34;;;;;;;0.80;0.60;;;2.50;99.90;;;;;;4975984;28;20503;-72
2021/11/29 09:13:00;;;;;;;0.40;0.40;;;2.50;99.90;;;;;;4975347;28;20380;-72
2021/11/29 09:15:27;;;;;;;0.77;0.77;;;2.60;99.90;;;;;;4975968;28;20435;-72
2021/11/29 09:17:54;;;;;;;0.90;0.90;;;2.70;99.90;;;;;;4974891;28;20471;-72
2021/11/29 09:20:24;;;;;;;0.40;0.40;;;2.90;99.90;;;;;;4975508;28;20404;-72
2021/11/29 09:22:51;;;;;;;0.40;0.20;;;2.90;99.90;;;;;;4975856;28;20413;-72
2021/11/29 09:25:17;;;;;;;0.60;0.50;;;2.90;99.90;;;;;;4975793;28;20424;-72
2021/11/29 09:27:43;;;;;;;0.50;0.40;;;2.90;99.90;;;;;;4975625;28;20462;-72
2021/11/29 09:30:15;;;;;;;0.40;0.30;;;3.10;99.90;;;;;;4974915;28;20458;-72
2021/11/29 09:32:41;;;;;;;0.40;0.20;;;3.10;99.90;;;;;;4975486;28;20423;-72
2021/11/29 09:35:12;;;;;;;0.60;0.60;;;3.20;99.90;;;;;;4975046;28;20733;-73
2021/11/29 09:37:38;;;;;;;0.40;0.20;;;3.10;99.90;;;;;;4975471;28;20458;-72
2021/11/29 09:40:06;;;;;;;0.40;0.20;;;3.10;99.90;;;;;;4974932;28;20471;-73
2021/11/29 09:42:33;;;;;;;0.40;0.20;;;3.20;99.90;;;;;;4975330;28;20398;-72
2021/11/29 09:45:00;;;;;;;0.40;0.20;;;3.30;99.90;;;;;;4975496;28;20737;-72
2021/11/29 09:47:26;;;;;;;0.40;0.20;;;3.50;99.90;;;;;;4974751;28;20400;-72
2021/11/29 09:49:55;;;;;;;0.90;0.60;;;3.50;99.90;;;;;;4985246;28;20775;-72
2021/11/29 09:52:22;;;;;;;1.98;0.65;;;3.50;99.90;;;;;;4976594;28;20451;-72
2021/11/29 09:54:48;;;;;;;0.40;0.20;;;3.30;99.90;;;;;;4994627;28;20393;-72
2021/11/29 09:57:14;;;;;;;0.40;0.20;;;3.20;99.90;;;;;;4993917;28;20440;-72
2021/11/29 09:59:40;;;;;;;0.40;0.20;;;3.40;99.90;;;;;;5013943;28;20389;-72
2021/11/29 10:02:12;;;;;;;0.40;0.30;;;3.40;99.90;;;;;;5014241;28;20384;-72
2021/11/29 10:04:39;;;;;;;0.40;0.20;;;3.40;99.90;;;;;;5013556;28;20820;-72
2021/11/29 10:07:04;;;;;;;0.40;0.20;;;3.40;99.90;;;;;;5013962;28;20385;-72
2021/11/29 10:09:37;;;;;;;0.40;0.30;;;3.40;99.90;;;;;;4995880;28;20899;-72
2021/11/29 10:12:11;;;;;;;0.40;0.20;;;3.30;99.90;;;;;;5013454;28;20492;-72
2021/11/29 10:14:38;;;;;;;0.40;0.20;;;3.40;99.90;;;;;;5013588;28;20440;-72
2021/11/29 10:17:04;;;;;;;0.40;0.20;;;3.50;99.90;;;;;;5013951;28;20738;-72
2021/11/29 10:19:38;;;;;;;0.40;0.20;;;3.50;99.90;;;;;;4995585;28;20733;-72
2021/11/29 10:22:19;;;;;;;0.50;0.32;;;3.50;99.90;;;;;;5013708;28;20396;-72
2021/11/29 10:24:45;;;;;;;0.40;0.40;;;3.40;99.90;;;;;;5013138;28;20389;-72
2021/11/29 10:27:11;;;;;;;0.40;0.20;;;3.20;99.90;;;;;;5013765;28;20917;-72
2021/11/29 10:29:38;;;;;;;0.40;0.20;;;3.50;99.90;;;;;;5013025;28;20412;-72
2021/11/29 10:32:04;;;;;;;0.50;0.50;;;4.00;99.90;;;;;;5013613;28;20412;-73
2021/11/29 10:34:32;;;;;;;0.50;0.50;;;4.00;99.90;;;;;;5013822;28;20743;-72
2021/11/29 10:37:09;;;;;;;0.68;0.57;;;3.80;99.90;;;;;;4995287;28;20822;-73
2021/11/29 10:39:41;;;;;;;0.40;0.40;;;4.20;99.90;;;;;;5013093;28;20883;-72
2021/11/29 10:42:09;;;;;;;0.60;0.60;;;3.70;99.90;;;;;;5013245;28;20454;-72
2021/11/29 10:44:41;;;;;;;0.40;0.20;;;3.70;99.90;;;;;;5013284;28;20381;-72
2021/11/29 10:47:11;;;;;;;0.40;0.20;;;3.70;99.90;;;;;;5012477;28;20512;-72
2021/11/29 10:49:43;;;;;;;0.40;0.20;;;3.70;99.90;;;;;;5012932;28;20433;-72
2021/11/29 10:52:10;;;;;;;0.40;0.40;;;3.60;99.90;;;;;;5012392;28;20424;-72
2021/11/29 10:54:39;;;;;;;0.55;0.55;;;3.90;99.90;;;;;;5013106;28;20385;-72
2021/11/29 10:57:10;;;;;;;0.40;0.20;;;3.70;99.90;;;;;;5012530;28;20730;-72
2021/11/29 10:59:37;;;;;;;0.40;0.20;;;3.90;99.90;;;;;;4994070;28;20387;-72
2021/11/29 11:02:16;;;;;;;0.40;0.20;;;4.10;99.90;;;;;;4992690;28;20398;-71
2021/11/29 11:04:44;;;;;;;0.40;0.20;;;4.10;99.90;;;;;;4993393;28;20395;-72
2021/11/29 11:07:22;;;;;;;0.40;0.20;;;4.00;99.90;;;;;;4992757;28;20389;-72
2021/11/29 11:09:53;;;;;;;0.40;0.20;;;4.20;99.90;;;;;;4993396;28;20619;-71
2021/11/29 11:12:20;;;;;;;0.40;0.20;;;4.50;99.90;;;;;;4992618;28;20441;-72
2021/11/29 11:14:54;;;;;;;0.40;0.20;;;4.80;99.90;;;;;;4993148;28;20391;-71
2021/11/29 11:17:25;;;;;;;0.40;0.20;;;4.70;99.90;;;;;;4992689;28;20395;-71
2021/11/29 11:20:06;;;;;;;0.40;0.20;;;5.30;99.90;;;;;;4993099;28;20410;-72
2021/11/29 11:22:51;;;;;;;0.40;0.20;;;6.00;99.90;;;;;;4992672;28;20467;-71
2021/11/29 11:25:22;;;;;;;0.40;0.30;;;6.20;99.90;;;;;;4992327;28;20934;-71
2021/11/29 11:27:58;;;;;;;0.52;0.52;;;5.90;99.90;;;;;;4993063;28;20383;-71
2021/11/29 11:30:25;;;;;;;0.40;0.30;;;5.70;99.90;;;;;;4974668;28;20421;-71
2021/11/29 11:33:07;;;;;;;0.40;0.20;;;5.30;99.90;;;;;;4992932;28;20465;-71
2021/11/29 11:35:35;;;;;;;0.40;0.30;;;4.90;99.90;;;;;;4992151;28;20387;-71
2021/11/29 11:38:13;;;;;;;0.40;0.20;;;4.70;99.90;;;;;;4992800;28;20395;-71
2021/11/29 11:40:42;;;;;;;0.50;0.40;;;5.50;99.90;;;;;;4992113;28;20386;-71
2021/11/29 11:43:09;;;;;;;0.40;0.20;;;6.30;99.90;;;;;;4992405;28;20732;-71
2021/11/29 11:45:40;;;;;;;0.40;0.20;;;6.90;99.90;;;;;;4991743;28;20872;-71
2021/11/29 11:48:09;;;;;;;0.40;0.20;;;6.20;99.90;;;;;;4992971;28;20390;-72
2021/11/29 11:50:39;;;;;;;0.40;0.30;;;5.00;99.90;;;;;;4957989;28;20526;-71
2021/11/29 11:53:06;;;;;;;0.40;0.20;;;5.00;99.90;;;;;;4973280;28;20447;-71
2021/11/29 11:55:37;;;;;;;0.40;0.20;;;5.00;99.90;;;;;;4972305;28;20388;-71
2021/11/29 11:58:26;;;;;;;0.40;0.20;;;4.90;99.90;;;;;;4979389;28;20383;-71
2021/11/29 12:01:15;;;;;;;0.80;0.80;;;4.50;99.90;;;;;;4992064;28;20731;-71
2021/11/29 12:03:46;;;;;;;0.40;0.20;;;4.80;99.90;;;;;;4991514;28;20378;-71
2021/11/29 12:06:16;;;;;;;0.40;0.20;;;4.80;99.90;;;;;;4992246;28;20394;-71
2021/11/29 12:08:56;;;;;;;0.40;0.20;;;4.90;99.90;;;;;;4992010;28;20422;-71
2021/11/29 12:11:26;;;;;;;0.40;0.20;;;4.70;99.90;;;;;;4991975;28;20905;-71
2021/11/29 12:14:05;;;;;;;0.40;0.40;;;4.50;99.90;;;;;;4991537;28;20807;-71
2021/11/29 12:16:56;;;;;;;0.40;0.20;;;4.50;99.90;;;;;;4992223;28;20417;-71
2021/11/29 12:19:25;;;;;;;0.40;0.30;;;4.30;99.10;;;;;;4960235;28;20552;-71
2021/11/29 12:21:53;;;;;;;0.40;0.20;;;4.50;99.90;;;;;;4966595;28;20430;-71
2021/11/29 12:24:21;;;;;;;0.70;0.70;;;4.50;99.90;;;;;;4963683;28;20855;-71
2021/11/29 12:26:50;;;;;;;0.40;0.20;;;4.40;99.50;;;;;;4952474;29;20389;-71
2021/11/29 12:29:24;;;;;;;0.40;0.28;;;4.50;99.40;;;;;;4953161;29;20426;-71
2021/11/29 12:32:05;;;;;;;0.40;0.20;;;4.40;99.20;;;;;;4952987;29;20493;-71
2021/11/29 12:34:52;;;;;;;0.40;0.20;;;4.20;99.50;;;;;;4953039;28;20386;-71
2021/11/29 12:37:25;;;;;;;0.40;0.20;;;4.20;99.90;;;;;;4952791;29;20484;-71
2021/11/29 12:40:06;;;;;;;0.40;0.20;;;4.20;99.90;;;;;;4952989;29;20390;-71
2021/11/29 12:42:35;;;;;;;0.40;0.20;;;4.00;99.90;;;;;;4952740;29;20390;-70
2021/11/29 12:45:03;;;;;;;0.40;0.20;;;4.30;99.90;;;;;;4951915;29;20453;-70
2021/11/29 12:47:29;;;;;;;0.40;0.20;;;4.20;99.90;;;;;;4952632;29;20421;-70
2021/11/29 12:50:00;;;;;;;0.40;0.20;;;4.30;99.90;;;;;;4952220;28;20430;-71
2021/11/29 12:53:08;;;;;;;0.40;0.20;;;4.20;99.90;;;;;;4952621;29;20401;-71
2021/11/29 12:55:34;;;;;;;0.40;0.30;;;4.20;99.90;;;;;;4905193;29;20874;-71
2021/11/29 12:58:09;;;;;;;0.40;0.30;;;4.20;99.90;;;;;;4964325;28;20765;-70
2021/11/29 13:01:13;;;;;;;0.40;0.30;;;4.10;99.90;;;;;;4978105;28;20773;-71